Time;durP1;ratioP1;P1;durP2;ratioP2;P2;SDS_P1;SDS_P2;PMS_P1;PMS_P2;Temp;Humidity;BMP_temperature;BMP_pressure;BME280_temperature;BME280_humidity;BME280_pressure;Samples;Min_cycle;Max_cycle;Signal;HPM_P1;HPM_P2
2023/12/14 00:00:26;;;;;;;100.13;37.47;;;8.00;99.90;;;;;;5051592;28;20650;-70
2023/12/14 00:02:52;;;;;;;98.57;34.70;;;8.10;99.90;;;;;;5051061;28;20253;-70
2023/12/14 00:05:18;;;;;;;93.77;34.37;;;8.10;99.90;;;;;;5051610;28;20202;-70
2023/12/14 00:07:43;;;;;;;93.83;35.00;;;8.00;99.90;;;;;;5051495;28;20171;-70
2023/12/14 00:10:09;;;;;;;90.67;33.23;;;8.10;99.90;;;;;;5051396;28;20494;-70
2023/12/14 00:12:34;;;;;;;95.30;36.40;;;8.00;99.90;;;;;;5051324;28;20254;-70
2023/12/14 00:15:00;;;;;;;91.07;34.80;;;8.00;99.90;;;;;;5051732;28;20285;-70
2023/12/14 00:17:26;;;;;;;104.93;35.40;;;8.00;99.90;;;;;;5051799;28;20179;-70
2023/12/14 00:19:51;;;;;;;108.20;37.30;;;8.00;99.90;;;;;;5051529;28;20539;-70
2023/12/14 00:22:17;;;;;;;103.60;37.07;;;8.00;99.90;;;;;;5050912;28;20175;-69
2023/12/14 00:24:42;;;;;;;98.40;36.47;;;8.00;99.90;;;;;;5051304;28;20197;-70
2023/12/14 00:27:08;;;;;;;115.10;39.13;;;8.00;99.90;;;;;;5050850;28;20175;-70
2023/12/14 00:29:33;;;;;;;118.63;38.23;;;8.00;99.90;;;;;;5051344;28;20213;-70
2023/12/14 00:31:59;;;;;;;121.47;39.23;;;8.10;99.90;;;;;;5050910;28;20677;-70
2023/12/14 00:34:25;;;;;;;112.23;40.13;;;8.10;99.90;;;;;;5050834;28;20206;-70
2023/12/14 00:36:50;;;;;;;117.33;37.23;;;8.10;99.90;;;;;;5051224;28;20248;-70
2023/12/14 00:39:16;;;;;;;127.37;39.77;;;8.20;99.90;;;;;;5051037;28;20523;-70
2023/12/14 00:41:41;;;;;;;120.20;38.00;;;8.20;99.90;;;;;;5051036;28;20177;-70
2023/12/14 00:44:07;;;;;;;108.63;39.93;;;8.20;99.90;;;;;;5050706;28;20198;-70
2023/12/14 00:46:32;;;;;;;103.47;36.93;;;8.30;99.90;;;;;;5051005;28;20187;-70
2023/12/14 00:48:58;;;;;;;114.37;38.90;;;8.30;99.90;;;;;;5051386;28;20241;-70
2023/12/14 00:51:24;;;;;;;119.20;39.53;;;8.30;99.90;;;;;;5052100;28;20533;-70
2023/12/14 00:53:49;;;;;;;129.53;41.67;;;8.30;99.90;;;;;;5049513;28;20183;-70
2023/12/14 00:56:15;;;;;;;115.13;37.47;;;8.30;99.90;;;;;;5049496;28;20166;-70
2023/12/14 00:58:40;;;;;;;114.80;39.73;;;8.30;99.90;;;;;;5050087;28;20226;-70
2023/12/14 01:01:06;;;;;;;105.67;38.83;;;8.30;99.90;;;;;;5049937;28;20639;-70
2023/12/14 01:03:32;;;;;;;106.07;39.57;;;8.30;99.90;;;;;;5050629;28;20225;-70
2023/12/14 01:05:58;;;;;;;122.00;40.67;;;8.30;99.90;;;;;;5051030;28;20177;-70
2023/12/14 01:08:23;;;;;;;117.47;41.00;;;8.30;99.90;;;;;;5050301;28;20208;-70
2023/12/14 01:10:49;;;;;;;131.23;42.60;;;8.30;99.90;;;;;;5051178;28;20178;-70
2023/12/14 01:13:14;;;;;;;123.17;41.10;;;8.20;99.90;;;;;;5050536;28;20181;-70
2023/12/14 01:15:40;;;;;;;123.97;40.87;;;8.30;99.90;;;;;;5050193;28;20233;-71
2023/12/14 01:18:06;;;;;;;135.23;42.07;;;8.30;99.90;;;;;;5050092;28;20638;-71
2023/12/14 01:20:31;;;;;;;137.17;41.77;;;8.30;99.90;;;;;;5050302;28;20284;-71
2023/12/14 01:22:57;;;;;;;134.87;43.37;;;8.30;99.90;;;;;;5050465;28;20181;-71
2023/12/14 01:25:22;;;;;;;139.17;43.90;;;8.30;99.90;;;;;;5053703;28;20195;-71
2023/12/14 01:27:48;;;;;;;151.13;45.50;;;8.30;99.90;;;;;;5054123;28;20282;-71
2023/12/14 01:30:14;;;;;;;142.67;43.80;;;8.40;99.90;;;;;;5054264;28;20167;-71
2023/12/14 01:32:39;;;;;;;151.83;44.67;;;8.40;99.90;;;;;;5054298;28;20179;-71
2023/12/14 01:35:05;;;;;;;142.73;41.63;;;8.40;99.90;;;;;;5054360;28;20197;-71
2023/12/14 01:37:31;;;;;;;144.67;43.10;;;8.50;99.90;;;;;;5054192;28;20179;-70
2023/12/14 01:39:56;;;;;;;146.27;43.60;;;8.40;99.90;;;;;;5054256;28;20182;-71
2023/12/14 01:42:22;;;;;;;135.40;43.00;;;8.50;99.90;;;;;;5053687;28;20174;-71
2023/12/14 01:44:47;;;;;;;141.90;42.73;;;8.50;99.90;;;;;;5054162;28;20425;-71
2023/12/14 01:47:13;;;;;;;136.37;43.17;;;8.50;99.90;;;;;;5053556;28;20320;-70
2023/12/14 01:49:41;;;;;;;144.77;43.03;;;8.50;99.90;;;;;;5054217;28;20207;-70
2023/12/14 01:52:06;;;;;;;127.47;42.63;;;8.40;99.90;;;;;;5053800;28;20174;-71
2023/12/14 01:54:33;;;;;;;147.07;43.27;;;8.40;99.90;;;;;;5053968;28;20566;-71
2023/12/14 01:56:59;;;;;;;130.50;41.73;;;8.40;99.90;;;;;;5053804;28;20311;-71
2023/12/14 01:59:24;;;;;;;128.97;41.10;;;8.40;99.90;;;;;;5053660;28;20186;-71
2023/12/14 02:01:56;;;;;;;143.90;44.23;;;8.40;99.90;;;;;;5053405;28;20179;-71
2023/12/14 02:04:22;;;;;;;149.07;43.27;;;8.40;99.90;;;;;;5053250;28;20203;-71
2023/12/14 02:06:47;;;;;;;122.67;40.43;;;8.30;99.90;;;;;;5053737;28;20551;-71
2023/12/14 02:09:13;;;;;;;124.20;41.17;;;8.30;99.90;;;;;;5053498;28;20209;-71
2023/12/14 02:11:39;;;;;;;136.03;40.07;;;8.30;99.90;;;;;;5053975;28;20209;-71
2023/12/14 02:14:09;;;;;;;134.77;40.60;;;8.30;99.90;;;;;;5053916;28;20289;-71
2023/12/14 02:16:35;;;;;;;132.73;41.17;;;8.30;99.90;;;;;;5053239;28;20175;-72
2023/12/14 02:19:00;;;;;;;136.93;40.37;;;8.30;99.90;;;;;;5053384;28;20237;-71
2023/12/14 02:21:26;;;;;;;126.93;40.83;;;8.20;99.90;;;;;;5053206;28;20186;-71
2023/12/14 02:23:52;;;;;;;132.80;41.33;;;8.20;99.90;;;;;;5052899;28;20536;-71
2023/12/14 02:26:17;;;;;;;122.43;39.87;;;8.20;99.90;;;;;;5053048;28;20190;-71
2023/12/14 02:28:43;;;;;;;112.63;39.10;;;8.20;99.90;;;;;;5053203;28;20218;-71
2023/12/14 02:31:08;;;;;;;99.43;36.13;;;8.10;99.90;;;;;;5053275;28;20175;-72
2023/12/14 02:33:34;;;;;;;94.03;36.27;;;8.10;99.90;;;;;;5052262;28;20183;-71
2023/12/14 02:36:00;;;;;;;92.93;35.23;;;8.00;99.90;;;;;;5052845;28;20175;-72
2023/12/14 02:38:26;;;;;;;88.47;35.03;;;8.00;99.90;;;;;;5052978;28;20186;-71
2023/12/14 02:40:52;;;;;;;86.23;34.63;;;7.90;99.90;;;;;;5053120;28;20175;-71
2023/12/14 02:43:18;;;;;;;93.93;35.53;;;7.90;99.90;;;;;;5052768;28;20268;-71
2023/12/14 02:45:44;;;;;;;90.87;36.90;;;7.90;99.90;;;;;;5052980;28;20186;-71
2023/12/14 02:48:10;;;;;;;95.73;36.20;;;7.90;99.90;;;;;;5052350;28;20198;-71
2023/12/14 02:50:36;;;;;;;89.77;33.67;;;7.90;99.90;;;;;;5052731;28;20179;-71
2023/12/14 02:53:01;;;;;;;89.50;35.10;;;7.90;99.90;;;;;;5052832;28;20171;-71
2023/12/14 02:55:27;;;;;;;92.70;36.43;;;7.90;99.90;;;;;;5052734;28;20198;-71
2023/12/14 02:57:52;;;;;;;98.83;39.63;;;7.90;99.90;;;;;;5052566;28;20183;-71
2023/12/14 03:00:18;;;;;;;113.47;39.77;;;7.90;99.90;;;;;;5052479;28;20617;-72
2023/12/14 03:02:44;;;;;;;114.53;40.30;;;7.80;99.90;;;;;;5052448;28;20183;-71
2023/12/14 03:05:10;;;;;;;100.23;38.90;;;7.80;99.90;;;;;;5052326;28;20206;-71
2023/12/14 03:07:35;;;;;;;104.20;37.90;;;7.70;99.90;;;;;;5051938;28;20175;-72
2023/12/14 03:10:03;;;;;;;80.77;34.23;;;7.70;99.90;;;;;;5052498;28;20179;-71
2023/12/14 03:12:28;;;;;;;88.87;36.20;;;7.70;99.90;;;;;;5051942;28;20171;-71
2023/12/14 03:14:54;;;;;;;85.73;33.13;;;7.60;99.90;;;;;;5052396;28;20205;-71
2023/12/14 03:17:19;;;;;;;76.77;32.93;;;7.60;99.90;;;;;;5052228;28;20174;-71
2023/12/14 03:19:45;;;;;;;78.90;33.50;;;7.60;99.90;;;;;;5052071;28;20190;-71
2023/12/14 03:22:11;;;;;;;82.60;31.47;;;7.50;99.90;;;;;;5051904;28;20261;-71
2023/12/14 03:24:37;;;;;;;74.87;30.77;;;7.50;99.90;;;;;;5051918;28;20260;-71
2023/12/14 03:27:03;;;;;;;87.73;33.17;;;7.50;99.90;;;;;;5051841;28;20704;-73
2023/12/14 03:29:29;;;;;;;75.87;33.90;;;7.50;99.90;;;;;;5052113;28;20253;-71
2023/12/14 03:31:58;;;;;;;73.57;32.87;;;7.50;99.90;;;;;;5052193;28;20171;-71
2023/12/14 03:34:24;;;;;;;85.20;33.57;;;7.50;99.90;;;;;;5051808;28;20256;-71
2023/12/14 03:36:50;;;;;;;88.33;35.47;;;7.40;99.90;;;;;;5052347;28;20630;-71
2023/12/14 03:39:16;;;;;;;89.70;35.60;;;7.40;99.90;;;;;;5052263;28;20175;-71
2023/12/14 03:41:42;;;;;;;108.77;42.47;;;7.40;99.90;;;;;;5052113;28;20189;-71
2023/12/14 03:44:08;;;;;;;114.10;41.87;;;7.30;99.90;;;;;;5051918;28;20190;-71
2023/12/14 03:46:34;;;;;;;114.57;44.63;;;7.30;99.90;;;;;;5051190;28;20167;-71
2023/12/14 03:49:00;;;;;;;110.60;42.47;;;7.30;99.90;;;;;;5052192;28;20194;-72
2023/12/14 03:51:26;;;;;;;122.50;43.87;;;7.20;99.90;;;;;;5051931;28;20163;-71
2023/12/14 03:53:51;;;;;;;107.87;41.30;;;7.20;99.90;;;;;;5051277;28;20187;-71
2023/12/14 03:56:17;;;;;;;119.17;42.70;;;7.20;99.90;;;;;;5051824;28;20182;-71
2023/12/14 03:58:43;;;;;;;113.87;43.10;;;7.20;99.90;;;;;;5051822;28;20205;-71
2023/12/14 04:01:14;;;;;;;140.77;53.17;;;7.20;99.90;;;;;;5051605;28;20280;-71
2023/12/14 04:03:40;;;;;;;120.37;42.70;;;7.20;99.90;;;;;;5051273;28;20198;-71
2023/12/14 04:06:06;;;;;;;113.37;39.73;;;7.20;99.90;;;;;;5051768;28;20647;-71
2023/12/14 04:08:31;;;;;;;120.93;37.60;;;7.30;99.90;;;;;;5051322;28;20194;-71
2023/12/14 04:10:57;;;;;;;120.20;37.97;;;7.20;99.90;;;;;;5051233;28;20179;-71
2023/12/14 04:13:22;;;;;;;104.80;33.83;;;7.20;99.90;;;;;;5051067;28;20179;-71
2023/12/14 04:15:48;;;;;;;102.77;33.13;;;7.20;99.90;;;;;;5051643;28;20198;-71
2023/12/14 04:18:14;;;;;;;102.93;33.27;;;7.20;99.90;;;;;;5051650;28;20236;-70
2023/12/14 04:20:39;;;;;;;99.37;32.60;;;7.10;99.90;;;;;;5051375;28;20182;-70
2023/12/14 04:23:05;;;;;;;109.23;35.33;;;7.20;99.90;;;;;;5051221;28;20755;-71
2023/12/14 04:25:30;;;;;;;98.07;34.40;;;7.10;99.90;;;;;;5050848;28;20194;-71
2023/12/14 04:27:56;;;;;;;108.23;32.80;;;7.10;99.90;;;;;;5031215;28;20202;-71
2023/12/14 04:30:22;;;;;;;107.10;36.17;;;7.10;99.90;;;;;;5031260;28;20171;-71
2023/12/14 04:32:47;;;;;;;98.10;34.80;;;7.20;99.90;;;;;;5029825;28;20262;-71
2023/12/14 04:35:13;;;;;;;105.17;33.27;;;7.10;99.90;;;;;;5031493;28;20191;-71
2023/12/14 04:37:38;;;;;;;110.67;34.97;;;7.10;99.90;;;;;;5031235;28;20176;-70
2023/12/14 04:40:05;;;;;;;93.70;33.03;;;7.10;99.90;;;;;;5031403;28;20269;-71
2023/12/14 04:42:30;;;;;;;94.60;35.23;;;7.10;99.90;;;;;;5050352;28;20257;-71
2023/12/14 04:44:56;;;;;;;101.63;34.40;;;7.00;99.90;;;;;;5051205;28;20324;-71
2023/12/14 04:47:21;;;;;;;110.77;34.70;;;7.00;99.90;;;;;;5050697;28;20177;-71
2023/12/14 04:49:47;;;;;;;102.50;37.90;;;7.00;99.90;;;;;;5050947;28;20724;-71
2023/12/14 04:52:13;;;;;;;103.83;36.47;;;6.90;99.90;;;;;;5050660;28;20195;-70
2023/12/14 04:54:40;;;;;;;103.33;39.37;;;7.00;99.90;;;;;;5050471;28;20272;-70
2023/12/14 04:57:06;;;;;;;114.50;45.67;;;6.90;99.90;;;;;;5050897;28;20704;-70
2023/12/14 04:59:31;;;;;;;125.23;53.23;;;6.80;99.90;;;;;;5053631;28;20174;-70
2023/12/14 05:01:57;;;;;;;98.23;39.07;;;6.90;99.90;;;;;;5054926;28;20621;-70
2023/12/14 05:04:22;;;;;;;97.40;34.23;;;6.80;99.90;;;;;;5054215;28;20198;-72
2023/12/14 05:06:48;;;;;;;75.40;29.87;;;6.80;99.90;;;;;;5054954;28;20783;-70
2023/12/14 05:09:13;;;;;;;85.50;30.07;;;6.90;99.90;;;;;;5054865;28;20281;-70
2023/12/14 05:11:40;;;;;;;76.50;28.33;;;6.80;99.90;;;;;;5054321;28;20617;-70
2023/12/14 05:14:06;;;;;;;82.93;30.03;;;6.80;99.90;;;;;;5054456;28;20210;-70
2023/12/14 05:16:33;;;;;;;92.57;33.33;;;6.90;99.90;;;;;;5054627;28;20260;-70
2023/12/14 05:18:59;;;;;;;80.40;30.90;;;6.80;99.90;;;;;;5054834;28;20279;-70
2023/12/14 05:21:25;;;;;;;84.20;34.00;;;6.80;99.90;;;;;;5054258;28;20269;-70
2023/12/14 05:23:50;;;;;;;90.87;33.60;;;6.80;99.90;;;;;;5054230;28;20197;-69
2023/12/14 05:26:16;;;;;;;98.97;39.07;;;6.80;99.90;;;;;;5054455;28;20262;-69
2023/12/14 05:28:43;;;;;;;123.83;50.93;;;6.80;99.90;;;;;;5053971;28;20256;-70
2023/12/14 05:31:08;;;;;;;89.27;36.00;;;6.90;99.90;;;;;;5054064;28;20246;-71
2023/12/14 05:33:38;;;;;;;89.13;30.60;;;6.90;99.90;;;;;;5053822;28;20580;-71
2023/12/14 05:36:08;;;;;;;97.20;30.60;;;6.80;99.90;;;;;;5054443;28;20641;-71
2023/12/14 05:38:34;;;;;;;97.73;30.43;;;6.80;99.90;;;;;;5054294;28;20173;-70
2023/12/14 05:41:00;;;;;;;99.60;34.87;;;6.70;99.90;;;;;;5054376;28;20201;-71
2023/12/14 05:43:26;;;;;;;96.57;32.37;;;6.70;99.90;;;;;;5053773;28;20702;-71
2023/12/14 05:45:51;;;;;;;102.20;33.97;;;6.70;99.90;;;;;;5053512;28;20183;-70
2023/12/14 05:48:17;;;;;;;96.43;32.43;;;6.70;99.90;;;;;;5053512;28;20597;-71
2023/12/14 05:50:42;;;;;;;84.97;30.40;;;6.70;99.90;;;;;;5053917;28;20454;-71
2023/12/14 05:53:08;;;;;;;95.50;31.07;;;6.70;99.90;;;;;;5053665;28;20198;-71
2023/12/14 05:55:33;;;;;;;81.00;29.13;;;6.70;99.90;;;;;;5053857;28;20187;-71
2023/12/14 05:57:59;;;;;;;83.60;29.07;;;6.70;99.90;;;;;;5053642;28;20182;-71
2023/12/14 06:00:25;;;;;;;97.30;30.13;;;6.70;99.90;;;;;;5053529;28;20179;-71
2023/12/14 06:02:50;;;;;;;85.30;29.37;;;6.70;99.90;;;;;;5053251;28;20179;-71
2023/12/14 06:05:16;;;;;;;90.33;29.27;;;6.70;99.90;;;;;;5053470;28;20224;-71
2023/12/14 06:07:41;;;;;;;88.77;30.67;;;6.70;99.90;;;;;;5053245;28;20276;-71
2023/12/14 06:10:07;;;;;;;103.00;30.00;;;6.70;99.90;;;;;;5053219;28;20543;-71
2023/12/14 06:12:33;;;;;;;104.77;31.90;;;6.70;99.90;;;;;;5052778;28;20668;-71
2023/12/14 06:14:58;;;;;;;92.03;30.63;;;6.70;99.90;;;;;;5053383;28;20256;-71
2023/12/14 06:17:24;;;;;;;98.77;30.87;;;6.70;99.90;;;;;;5043027;28;20258;-71
2023/12/14 06:19:50;;;;;;;104.10;31.67;;;6.70;99.90;;;;;;5053774;28;20179;-71
2023/12/14 06:22:15;;;;;;;103.00;32.87;;;6.70;99.90;;;;;;5053659;28;20182;-71
2023/12/14 06:24:41;;;;;;;93.67;28.93;;;6.60;99.90;;;;;;5052980;28;20194;-71
2023/12/14 06:27:06;;;;;;;109.27;30.57;;;6.70;99.90;;;;;;5052654;28;20545;-71
2023/12/14 06:29:32;;;;;;;98.03;29.83;;;6.60;99.90;;;;;;5053035;28;20195;-72
2023/12/14 06:31:58;;;;;;;107.77;31.63;;;6.60;99.90;;;;;;5052825;28;20171;-72
2023/12/14 06:34:23;;;;;;;117.53;31.23;;;6.50;99.90;;;;;;5052804;28;20320;-71
2023/12/14 06:36:49;;;;;;;91.27;30.43;;;6.50;99.90;;;;;;5053058;28;20534;-71
2023/12/14 06:39:14;;;;;;;110.67;32.23;;;6.50;99.90;;;;;;5053164;28;20171;-72
2023/12/14 06:41:40;;;;;;;92.90;31.17;;;6.50;99.90;;;;;;5052761;28;20179;-72
2023/12/14 06:44:08;;;;;;;101.73;32.13;;;6.50;99.90;;;;;;5052701;28;20194;-71
2023/12/14 06:46:34;;;;;;;93.33;30.23;;;6.50;99.90;;;;;;5052317;28;20206;-71
2023/12/14 06:49:00;;;;;;;97.73;28.80;;;6.50;99.90;;;;;;5052797;28;20759;-70
2023/12/14 06:51:25;;;;;;;104.13;31.77;;;6.40;99.90;;;;;;5052180;28;20320;-71
2023/12/14 06:53:51;;;;;;;111.93;29.87;;;6.40;99.90;;;;;;5052247;28;20281;-70
2023/12/14 06:56:16;;;;;;;110.17;30.47;;;6.40;99.90;;;;;;5052211;28;20171;-70
2023/12/14 06:58:44;;;;;;;112.10;29.40;;;6.40;99.90;;;;;;5052018;28;20183;-71
2023/12/14 07:01:14;;;;;;;97.87;28.50;;;6.40;99.90;;;;;;5052196;28;20175;-70
2023/12/14 07:03:41;;;;;;;97.03;29.40;;;6.40;99.90;;;;;;5052400;28;20285;-70
2023/12/14 07:06:08;;;;;;;93.73;28.20;;;6.40;99.90;;;;;;5052476;28;20178;-71
2023/12/14 07:08:33;;;;;;;88.00;29.13;;;6.30;99.90;;;;;;5052420;28;20281;-71
2023/12/14 07:10:59;;;;;;;90.40;28.07;;;6.40;99.90;;;;;;5052005;28;20254;-71
2023/12/14 07:13:24;;;;;;;92.40;28.97;;;6.30;99.90;;;;;;5052036;28;20171;-71
2023/12/14 07:15:51;;;;;;;92.57;27.07;;;6.30;99.90;;;;;;5052211;28;20233;-71
2023/12/14 07:18:16;;;;;;;91.60;28.50;;;6.40;99.90;;;;;;5051790;28;20187;-71
2023/12/14 07:20:42;;;;;;;84.37;25.20;;;6.40;99.90;;;;;;5051955;28;20201;-71
2023/12/14 07:23:08;;;;;;;93.67;27.27;;;6.50;99.90;;;;;;5051418;28;20175;-71
2023/12/14 07:25:33;;;;;;;91.43;26.50;;;6.50;99.90;;;;;;5051610;28;20191;-71
2023/12/14 07:27:59;;;;;;;84.80;27.33;;;6.40;99.90;;;;;;5052190;28;20303;-71
2023/12/14 07:30:24;;;;;;;88.97;27.67;;;6.40;99.90;;;;;;5051808;28;20254;-71
2023/12/14 07:32:51;;;;;;;75.70;25.27;;;6.50;99.90;;;;;;5051935;28;20171;-71
2023/12/14 07:35:16;;;;;;;81.60;26.67;;;6.40;99.90;;;;;;5052116;28;20670;-71
2023/12/14 07:37:42;;;;;;;77.83;27.63;;;6.40;99.90;;;;;;5051726;28;20201;-71
2023/12/14 07:40:08;;;;;;;72.80;25.23;;;6.30;99.90;;;;;;5052330;28;20177;-71
2023/12/14 07:42:34;;;;;;;62.90;22.20;;;6.20;99.90;;;;;;5052686;28;20171;-71
2023/12/14 07:45:00;;;;;;;64.43;23.07;;;6.20;99.90;;;;;;5053089;28;20191;-71
2023/12/14 07:47:25;;;;;;;67.50;23.07;;;6.20;99.90;;;;;;5051253;28;20228;-71
2023/12/14 07:49:51;;;;;;;69.93;24.33;;;6.30;99.90;;;;;;5051600;28;20712;-71
2023/12/14 07:52:16;;;;;;;69.07;25.50;;;6.30;99.90;;;;;;5051396;28;20657;-71
2023/12/14 07:54:42;;;;;;;65.93;23.93;;;6.30;99.90;;;;;;5051433;28;20228;-71
2023/12/14 07:57:08;;;;;;;75.50;23.77;;;6.20;99.90;;;;;;5051148;28;20228;-71
2023/12/14 07:59:33;;;;;;;64.10;23.77;;;6.20;99.90;;;;;;5051618;28;20212;-71
2023/12/14 08:01:59;;;;;;;67.80;25.63;;;6.20;99.90;;;;;;5050192;28;20539;-71
2023/12/14 08:04:25;;;;;;;67.67;24.67;;;6.10;99.90;;;;;;5050911;28;20237;-71
2023/12/14 08:06:51;;;;;;;74.83;25.33;;;6.10;99.90;;;;;;5051136;28;20179;-71
2023/12/14 08:09:16;;;;;;;66.40;23.93;;;6.20;99.90;;;;;;5051415;28;20217;-71
2023/12/14 08:11:42;;;;;;;66.80;24.87;;;6.10;99.90;;;;;;5051247;28;20174;-71
2023/12/14 08:14:08;;;;;;;58.80;23.77;;;6.10;99.90;;;;;;5051225;28;20224;-71
2023/12/14 08:16:33;;;;;;;62.37;23.33;;;6.20;99.90;;;;;;5051310;28;20693;-71
2023/12/14 08:18:59;;;;;;;57.10;22.00;;;6.20;99.90;;;;;;5051196;28;20262;-71
2023/12/14 08:21:24;;;;;;;68.57;23.40;;;6.30;99.90;;;;;;5050815;28;20262;-71
2023/12/14 08:23:50;;;;;;;64.43;24.73;;;6.30;99.90;;;;;;5046437;28;20580;-71
2023/12/14 08:26:15;;;;;;;68.80;25.10;;;6.20;99.90;;;;;;5050719;28;20661;-71
2023/12/14 08:28:42;;;;;;;87.33;28.33;;;6.20;99.90;;;;;;5051047;28;20202;-71
2023/12/14 08:31:09;;;;;;;101.83;38.13;;;6.10;99.90;;;;;;5050935;28;20177;-71
2023/12/14 08:33:35;;;;;;;82.07;30.13;;;6.10;99.90;;;;;;5050700;28;20167;-71
2023/12/14 08:36:00;;;;;;;82.53;33.83;;;6.10;99.90;;;;;;5051098;28;20597;-71
2023/12/14 08:38:26;;;;;;;75.23;27.83;;;6.10;99.90;;;;;;5049795;28;20497;-71
2023/12/14 08:40:52;;;;;;;67.40;25.77;;;6.00;99.90;;;;;;5050770;28;20174;-71
2023/12/14 08:43:17;;;;;;;74.23;29.70;;;6.00;99.90;;;;;;5051018;28;20514;-71
2023/12/14 08:45:43;;;;;;;77.47;33.93;;;6.00;99.90;;;;;;5051505;28;20281;-71
2023/12/14 08:48:08;;;;;;;80.80;36.03;;;6.00;99.90;;;;;;5051432;28;20199;-71
2023/12/14 08:50:34;;;;;;;70.53;28.17;;;5.90;99.90;;;;;;5050840;28;20224;-71
2023/12/14 08:53:00;;;;;;;83.20;29.97;;;5.90;99.90;;;;;;5050768;28;20162;-71
2023/12/14 08:55:26;;;;;;;81.80;30.60;;;6.00;99.90;;;;;;5050973;28;20316;-71
2023/12/14 08:57:52;;;;;;;85.27;34.33;;;6.10;99.90;;;;;;5051019;28;20178;-71
2023/12/14 09:00:18;;;;;;;100.43;45.40;;;6.10;99.90;;;;;;5050988;28;20175;-71
2023/12/14 09:02:45;;;;;;;74.63;32.90;;;6.10;99.90;;;;;;5050551;28;20541;-71
2023/12/14 09:05:12;;;;;;;69.90;29.53;;;6.10;99.90;;;;;;5051395;28;20189;-71
2023/12/14 09:07:38;;;;;;;74.47;32.77;;;6.10;99.90;;;;;;5051881;28;20630;-71
2023/12/14 09:10:04;;;;;;;71.50;29.23;;;6.00;99.90;;;;;;5050619;28;20203;-72
2023/12/14 09:12:30;;;;;;;78.63;30.23;;;6.00;99.90;;;;;;5050546;28;20252;-71
2023/12/14 09:14:55;;;;;;;71.83;31.57;;;6.00;99.90;;;;;;5050917;28;20245;-71
2023/12/14 09:17:21;;;;;;;72.83;28.10;;;6.00;99.90;;;;;;5050721;28;20635;-70
2023/12/14 09:19:47;;;;;;;68.50;29.37;;;5.90;99.90;;;;;;5050695;28;20179;-71
2023/12/14 09:22:12;;;;;;;71.37;28.53;;;5.90;99.90;;;;;;5050627;28;20262;-70
2023/12/14 09:24:38;;;;;;;67.77;28.90;;;5.90;99.90;;;;;;5050514;28;20550;-70
2023/12/14 09:27:04;;;;;;;66.87;29.00;;;6.00;99.90;;;;;;5050496;28;20193;-70
2023/12/14 09:29:29;;;;;;;67.10;28.80;;;6.00;99.90;;;;;;5050631;28;20709;-70
2023/12/14 09:31:55;;;;;;;68.33;28.57;;;5.90;99.90;;;;;;5050506;28;20175;-71
2023/12/14 09:34:21;;;;;;;63.03;27.03;;;6.00;99.90;;;;;;5050383;28;20245;-71
2023/12/14 09:36:46;;;;;;;69.53;28.10;;;6.00;99.90;;;;;;5050105;28;20261;-71
2023/12/14 09:39:12;;;;;;;78.03;28.90;;;6.00;99.90;;;;;;5049340;28;20175;-71
2023/12/14 09:41:38;;;;;;;75.70;29.83;;;6.00;99.90;;;;;;5050505;28;20224;-71
2023/12/14 09:44:06;;;;;;;67.23;27.40;;;6.00;99.90;;;;;;5050475;28;20270;-71
2023/12/14 09:46:34;;;;;;;71.03;27.70;;;6.00;99.90;;;;;;5053843;28;20181;-71
2023/12/14 09:49:01;;;;;;;66.63;27.37;;;6.00;99.90;;;;;;5054583;28;20202;-70
2023/12/14 09:51:27;;;;;;;68.00;28.77;;;6.10;99.90;;;;;;5054313;28;20675;-71
2023/12/14 09:53:57;;;;;;;77.67;28.73;;;6.00;99.90;;;;;;5053345;28;20256;-71
2023/12/14 09:56:27;;;;;;;70.60;29.23;;;6.10;99.90;;;;;;5048753;28;20247;-71
2023/12/14 09:58:53;;;;;;;74.60;32.33;;;6.00;99.90;;;;;;5039530;28;20651;-71
2023/12/14 10:01:26;;;;;;;70.27;28.13;;;6.10;99.90;;;;;;5034123;28;20187;-71
2023/12/14 10:04:13;;;;;;;72.57;27.50;;;6.00;99.90;;;;;;5033908;28;20187;-71
2023/12/14 10:06:40;;;;;;;65.83;28.50;;;6.10;99.90;;;;;;5034081;28;20171;-71
2023/12/14 10:09:09;;;;;;;72.43;29.20;;;6.00;99.90;;;;;;5033871;28;20206;-71
2023/12/14 10:11:42;;;;;;;73.80;28.50;;;6.00;99.90;;;;;;5033784;28;20163;-71
2023/12/14 10:14:34;;;;;;;61.43;26.73;;;6.10;99.90;;;;;;5046785;28;20309;-71
2023/12/14 10:17:28;;;;;;;69.83;27.90;;;6.10;99.90;;;;;;5052553;28;20191;-71
2023/12/14 10:19:54;;;;;;;61.30;26.03;;;6.00;99.90;;;;;;5053140;28;20178;-71
2023/12/14 10:22:20;;;;;;;73.07;28.27;;;5.90;99.90;;;;;;5053439;28;20171;-70
2023/12/14 10:24:47;;;;;;;62.67;27.07;;;6.00;99.90;;;;;;5053634;28;20707;-70
2023/12/14 10:27:15;;;;;;;64.00;26.83;;;5.90;99.90;;;;;;5054529;28;20158;-70
2023/12/14 10:29:41;;;;;;;62.43;25.60;;;5.90;99.90;;;;;;5055161;28;20217;-71
2023/12/14 10:32:08;;;;;;;54.97;25.03;;;5.90;99.90;;;;;;5053366;28;20642;-71
2023/12/14 10:34:41;;;;;;;60.10;26.13;;;5.80;99.90;;;;;;5039608;28;20191;-70
2023/12/14 10:37:07;;;;;;;59.93;25.80;;;5.90;99.90;;;;;;5047382;28;20228;-72
2023/12/14 10:39:35;;;;;;;53.97;26.83;;;5.90;99.90;;;;;;5052497;28;20183;-71
2023/12/14 10:42:06;;;;;;;61.30;27.40;;;5.90;99.90;;;;;;5052420;28;20591;-71
2023/12/14 10:44:36;;;;;;;57.83;24.93;;;5.80;99.90;;;;;;5052585;28;20704;-71
2023/12/14 10:47:04;;;;;;;55.80;25.57;;;5.80;99.90;;;;;;5052608;28;20186;-71
2023/12/14 10:49:30;;;;;;;55.53;24.70;;;5.80;99.90;;;;;;5052722;28;20302;-70
2023/12/14 10:51:58;;;;;;;57.13;24.40;;;5.70;99.90;;;;;;5052421;28;20224;-71
2023/12/14 10:54:26;;;;;;;58.73;25.17;;;5.80;99.90;;;;;;5051707;28;20239;-71
2023/12/14 10:56:58;;;;;;;64.80;25.70;;;5.90;99.90;;;;;;5050984;28;20193;-71
2023/12/14 10:59:25;;;;;;;57.27;24.90;;;6.00;99.90;;;;;;5052955;28;20573;-71
2023/12/14 11:01:54;;;;;;;53.50;25.53;;;6.00;99.90;;;;;;5050994;28;20178;-71
2023/12/14 11:04:23;;;;;;;52.53;25.50;;;6.10;99.90;;;;;;5051975;28;20288;-73
2023/12/14 11:06:49;;;;;;;52.93;25.60;;;6.20;99.90;;;;;;5052433;28;20178;-72
2023/12/14 11:09:18;;;;;;;59.57;25.63;;;6.20;99.90;;;;;;5051794;28;20198;-72
2023/12/14 11:11:53;;;;;;;53.73;24.20;;;6.20;99.90;;;;;;5052735;28;20199;-72
2023/12/14 11:14:19;;;;;;;53.30;23.93;;;6.20;99.90;;;;;;5038025;28;20206;-71
2023/12/14 11:16:46;;;;;;;50.13;24.63;;;6.20;99.90;;;;;;5032278;28;20203;-71
2023/12/14 11:19:20;;;;;;;51.83;25.87;;;6.20;99.90;;;;;;5032394;28;20259;-72
2023/12/14 11:21:47;;;;;;;50.83;24.17;;;6.20;99.90;;;;;;5032276;28;20178;-72
2023/12/14 11:24:12;;;;;;;46.30;23.50;;;6.20;99.90;;;;;;5032074;28;20253;-71
2023/12/14 11:26:39;;;;;;;54.20;24.33;;;6.30;99.90;;;;;;5032028;28;20175;-71
2023/12/14 11:29:06;;;;;;;55.73;24.77;;;6.30;99.90;;;;;;5032268;28;20226;-71
2023/12/14 11:31:32;;;;;;;50.73;23.90;;;6.20;99.90;;;;;;5040841;28;20171;-72
2023/12/14 11:34:01;;;;;;;55.80;25.10;;;6.30;99.90;;;;;;5051586;28;20205;-71
2023/12/14 11:36:27;;;;;;;61.73;24.23;;;6.30;99.90;;;;;;5052165;28;20183;-71
2023/12/14 11:38:54;;;;;;;52.93;25.90;;;6.30;99.90;;;;;;5050931;28;20717;-71
2023/12/14 11:41:21;;;;;;;56.50;24.33;;;6.20;99.90;;;;;;5051111;28;20187;-72
2023/12/14 11:43:48;;;;;;;47.70;24.23;;;6.30;99.90;;;;;;5050373;28;20621;-71
2023/12/14 11:46:15;;;;;;;57.10;24.07;;;6.20;99.90;;;;;;5052339;28;20167;-72
2023/12/14 11:48:43;;;;;;;52.03;24.80;;;6.20;99.90;;;;;;5052775;28;20259;-72
2023/12/14 11:51:10;;;;;;;49.63;24.47;;;6.20;99.90;;;;;;5055328;28;20209;-71
2023/12/14 11:53:38;;;;;;;43.67;22.27;;;6.20;99.90;;;;;;5051450;28;20721;-72
2023/12/14 11:56:05;;;;;;;44.60;22.97;;;6.20;99.90;;;;;;5051465;28;20175;-71
2023/12/14 11:58:34;;;;;;;49.23;25.10;;;6.10;99.90;;;;;;5051084;28;20179;-71
2023/12/14 12:01:17;;;;;;;44.30;23.03;;;6.10;99.90;;;;;;5051290;28;20746;-71
2023/12/14 12:03:44;;;;;;;47.20;23.60;;;6.10;99.90;;;;;;5050623;28;20552;-71
2023/12/14 12:06:27;;;;;;;59.53;29.40;;;6.20;99.90;;;;;;5051223;28;20533;-71
2023/12/14 12:08:53;;;;;;;42.60;23.97;;;6.20;99.90;;;;;;5050488;28;20257;-71
2023/12/14 12:11:21;;;;;;;44.57;22.97;;;6.20;99.90;;;;;;5051245;28;20175;-72
2023/12/14 12:13:55;;;;;;;45.20;22.73;;;6.30;99.90;;;;;;5050650;28;20202;-71
2023/12/14 12:16:21;;;;;;;40.47;21.90;;;6.30;99.90;;;;;;5051272;28;20270;-72
2023/12/14 12:18:46;;;;;;;36.20;20.43;;;6.30;99.90;;;;;;5052511;28;20677;-71
2023/12/14 12:21:13;;;;;;;39.20;20.87;;;6.40;99.90;;;;;;5053064;28;20242;-71
2023/12/14 12:23:38;;;;;;;41.13;20.27;;;6.30;99.90;;;;;;5051331;28;20262;-72
2023/12/14 12:26:04;;;;;;;42.67;22.20;;;6.40;99.90;;;;;;5050478;28;20610;-71
2023/12/14 12:28:31;;;;;;;33.37;21.00;;;6.40;99.90;;;;;;5049683;28;20252;-71